カラチ の空港の天気 - METARとTAF

ジンナー国際空港(カラチ) ( OPKC / KHI ) - パキスタン Karachi
飛行場実況気象(Metar)
観測時間01/23 08:55 PKT (01/23 03:55 UTC)
風向・風速静穏 0m/s
視程2000m
天気現象煙霧
なし
気温17℃
湿度29%
気圧1014hPa
METAROPKC 230355Z 00000KT 2000 HZ NSC 17/M01 Q1014 NOSIG
過去の天気等 Google飛行場航空写真 Wunderground天気予報

過去48時間のMETAR

飛行場予報(TAF)
発表時間: 1/23 05:30 PKT (1/23 00:30 UTC)
予報対象時間: 23日8時 PKT ~ 23日17時 PKT
風向・風速北北西 3m/s 瞬間風速 8m/s
視程6,000m
なし
TAF OPKC 230030Z 2303/2312 34005G15KT 6000 NSC